Time;durP1;ratioP1;P1;durP2;ratioP2;P2;SDS_P1;SDS_P2;PMS_P1;PMS_P2;Temp;Humidity;BMP_temperature;BMP_pressure;BME280_temperature;BME280_humidity;BME280_pressure;Samples;Min_cycle;Max_cycle;Signal;HPM_P1;HPM_P2
2021/10/14 00:00:17;;;;;;;6.32;3.72;;;11.60;95.20;;;;;;5054030;28;20554;-78
2021/10/14 00:02:43;;;;;;;13.60;4.28;;;11.60;95.20;;;;;;5054710;28;20025;-78
2021/10/14 00:05:08;;;;;;;14.20;4.80;;;11.50;95.40;;;;;;5053630;28;20395;-77
2021/10/14 00:07:34;;;;;;;11.00;4.38;;;11.50;95.40;;;;;;5054783;28;20036;-77
2021/10/14 00:10:00;;;;;;;8.43;4.77;;;11.50;95.50;;;;;;5053655;28;20078;-78
2021/10/14 00:12:25;;;;;;;15.70;5.28;;;11.50;95.50;;;;;;5054077;28;20527;-78
2021/10/14 00:14:51;;;;;;;14.60;5.77;;;11.50;95.80;;;;;;5054809;28;20041;-77
2021/10/14 00:17:17;;;;;;;10.35;5.05;;;11.50;95.80;;;;;;5053350;28;20467;-78
2021/10/14 00:19:42;;;;;;;15.38;5.72;;;11.50;95.80;;;;;;5037054;28;20106;-78
2021/10/14 00:22:08;;;;;;;11.23;6.07;;;11.50;95.80;;;;;;5054505;28;20370;-78
2021/10/14 00:24:33;;;;;;;14.33;5.80;;;11.50;95.80;;;;;;5053168;28;20090;-78
2021/10/14 00:26:59;;;;;;;13.02;5.45;;;11.50;95.90;;;;;;5054835;28;20108;-77
2021/10/14 00:29:25;;;;;;;12.97;6.63;;;11.60;96.00;;;;;;5053112;28;20033;-77
2021/10/14 00:31:50;;;;;;;10.90;6.17;;;11.50;96.00;;;;;;5053306;28;20029;-77
2021/10/14 00:34:16;;;;;;;12.57;6.00;;;11.50;96.10;;;;;;5036072;28;20444;-78
2021/10/14 00:36:42;;;;;;;14.23;6.60;;;11.60;96.10;;;;;;5054782;28;20385;-78
2021/10/14 00:39:07;;;;;;;14.50;6.90;;;11.50;96.10;;;;;;5052966;28;20079;-77
2021/10/14 00:41:33;;;;;;;23.75;7.80;;;11.60;96.10;;;;;;5054189;28;20040;-77
2021/10/14 00:43:59;;;;;;;19.05;7.65;;;11.60;96.20;;;;;;5036948;28;20512;-77
2021/10/14 00:46:25;;;;;;;15.87;7.20;;;11.60;96.20;;;;;;5052927;28;20099;-77
2021/10/14 00:48:52;;;;;;;15.57;6.97;;;11.50;96.20;;;;;;5054279;28;20116;-78
2021/10/14 00:51:18;;;;;;;19.02;7.78;;;11.60;96.20;;;;;;5054187;28;20044;-78
2021/10/14 00:53:43;;;;;;;16.25;8.80;;;11.60;96.30;;;;;;5054130;28;20036;-77
2021/10/14 00:56:09;;;;;;;14.60;8.40;;;11.60;96.40;;;;;;5052917;28;20397;-78
2021/10/14 00:58:36;;;;;;;17.40;9.37;;;11.60;96.50;;;;;;5052889;28;20080;-78
2021/10/14 01:01:03;;;;;;;23.45;9.30;;;11.60;96.70;;;;;;5053770;28;20040;-78
2021/10/14 01:03:29;;;;;;;19.15;10.52;;;11.60;96.80;;;;;;5053099;28;20032;-77
2021/10/14 01:05:56;;;;;;;20.20;10.45;;;11.60;97.00;;;;;;5052584;28;20485;-78
2021/10/14 01:08:22;;;;;;;19.50;11.77;;;11.60;96.90;;;;;;5052551;28;20017;-79
2021/10/14 01:10:48;;;;;;;21.20;12.40;;;11.60;97.00;;;;;;5054024;28;20110;-79
2021/10/14 01:13:16;;;;;;;19.55;10.85;;;11.60;97.20;;;;;;5053661;28;20083;-79
2021/10/14 01:15:42;;;;;;;21.83;11.40;;;11.60;97.10;;;;;;5053880;28;20032;-78
2021/10/14 01:18:08;;;;;;;21.15;13.40;;;11.60;97.10;;;;;;5035756;28;20064;-78
2021/10/14 01:20:33;;;;;;;26.60;14.02;;;11.60;97.20;;;;;;5052485;28;20063;-78
2021/10/14 01:22:59;;;;;;;24.83;14.73;;;11.60;97.10;;;;;;5035974;28;20025;-78
2021/10/14 01:25:25;;;;;;;23.40;14.87;;;11.60;97.30;;;;;;5035736;28;20029;-78
2021/10/14 01:27:51;;;;;;;24.33;13.80;;;11.60;97.30;;;;;;5052425;28;20040;-79
2021/10/14 01:30:17;;;;;;;19.55;12.43;;;11.60;97.30;;;;;;5053151;28;20029;-78
2021/10/14 01:32:46;;;;;;;24.93;14.40;;;11.60;97.20;;;;;;5052841;28;20086;-78
2021/10/14 01:35:12;;;;;;;22.58;14.40;;;11.60;97.30;;;;;;5051795;28;20442;-78
2021/10/14 01:37:38;;;;;;;21.17;13.77;;;11.70;97.30;;;;;;5053298;28;20087;-78
2021/10/14 01:40:05;;;;;;;21.48;13.82;;;11.70;97.30;;;;;;5051859;28;20031;-79
2021/10/14 01:42:31;;;;;;;23.75;14.25;;;11.60;97.30;;;;;;5053188;28;20032;-78
2021/10/14 01:44:59;;;;;;;24.65;14.68;;;11.60;97.30;;;;;;5051803;28;20381;-78
2021/10/14 01:47:26;;;;;;;25.20;14.13;;;11.70;97.30;;;;;;5035561;28;20041;-78
2021/10/14 01:49:51;;;;;;;25.13;15.25;;;11.70;97.30;;;;;;5053212;28;20028;-78
2021/10/14 01:52:17;;;;;;;22.80;14.48;;;11.70;97.30;;;;;;5051875;28;20025;-78
2021/10/14 01:54:43;;;;;;;24.27;13.95;;;11.70;97.20;;;;;;5051708;28;20400;-78
2021/10/14 01:57:08;;;;;;;27.37;14.47;;;11.70;97.20;;;;;;5052838;28;20036;-79
2021/10/14 01:59:34;;;;;;;28.88;17.55;;;11.70;97.30;;;;;;5052731;28;20450;-79
2021/10/14 02:01:59;;;;;;;27.35;17.45;;;11.80;97.50;;;;;;5035210;28;20072;-79
2021/10/14 02:04:25;;;;;;;29.88;18.10;;;11.80;97.50;;;;;;5051202;28;20055;-79
2021/10/14 02:06:51;;;;;;;30.48;17.20;;;11.80;97.60;;;;;;5051554;28;20026;-79
2021/10/14 02:09:16;;;;;;;34.42;18.58;;;11.80;97.50;;;;;;5035177;28;20032;-79
2021/10/14 02:11:42;;;;;;;30.42;17.80;;;11.80;97.80;;;;;;5051526;28;20473;-79
2021/10/14 02:14:08;;;;;;;33.58;18.48;;;11.80;97.80;;;;;;5052839;28;20118;-79
2021/10/14 02:16:33;;;;;;;38.20;20.95;;;11.80;97.70;;;;;;5054426;28;20120;-79
2021/10/14 02:18:59;;;;;;;36.15;21.20;;;11.80;97.90;;;;;;5056724;28;20033;-79
2021/10/14 02:21:24;;;;;;;30.15;17.73;;;11.80;97.80;;;;;;5056071;28;20030;-79
2021/10/14 02:23:50;;;;;;;35.85;20.35;;;11.70;97.70;;;;;;5055784;28;20439;-79
2021/10/14 02:26:16;;;;;;;38.97;18.98;;;11.80;97.80;;;;;;5039349;28;20060;-78
2021/10/14 02:28:41;;;;;;;36.40;20.38;;;11.90;97.80;;;;;;5057007;28;20432;-78
2021/10/14 02:31:07;;;;;;;37.08;22.02;;;11.90;97.90;;;;;;5055764;28;20033;-78
2021/10/14 02:33:32;;;;;;;34.28;20.50;;;11.90;98.00;;;;;;5054942;28;20065;-78
2021/10/14 02:35:58;;;;;;;34.65;20.95;;;11.80;97.80;;;;;;5055600;28;20495;-77
2021/10/14 02:38:24;;;;;;;39.47;21.08;;;11.90;97.90;;;;;;5056679;28;20033;-78
2021/10/14 02:40:50;;;;;;;38.08;22.42;;;11.90;97.90;;;;;;5056430;28;20029;-77
2021/10/14 02:43:15;;;;;;;41.80;22.67;;;11.90;97.90;;;;;;5038671;28;20037;-77
2021/10/14 02:45:41;;;;;;;43.28;21.83;;;11.90;97.90;;;;;;5055658;28;20029;-78
2021/10/14 02:48:07;;;;;;;39.13;20.08;;;11.90;97.90;;;;;;5055442;28;20033;-77
2021/10/14 02:50:32;;;;;;;46.95;21.40;;;12.00;97.90;;;;;;5038571;28;20025;-78
2021/10/14 02:52:58;;;;;;;40.03;21.85;;;12.00;97.80;;;;;;5055263;28;20028;-79
2021/10/14 02:55:24;;;;;;;39.08;21.23;;;12.00;97.80;;;;;;5054741;28;20033;-78
2021/10/14 02:57:49;;;;;;;43.40;21.98;;;12.00;97.80;;;;;;5055376;28;20461;-79
2021/10/14 03:00:15;;;;;;;41.70;21.20;;;12.00;97.80;;;;;;5038222;28;20049;-79
2021/10/14 03:02:41;;;;;;;40.88;21.85;;;12.00;97.80;;;;;;5037676;28;20029;-78
2021/10/14 03:05:07;;;;;;;35.47;21.27;;;12.10;97.80;;;;;;5055845;28;20029;-79
2021/10/14 03:07:32;;;;;;;36.95;18.10;;;12.00;97.80;;;;;;5056217;28;20350;-79
2021/10/14 03:09:58;;;;;;;42.78;22.85;;;12.10;98.10;;;;;;5054878;28;20051;-79
2021/10/14 03:12:24;;;;;;;36.38;21.35;;;12.10;97.80;;;;;;5056045;28;20499;-79
2021/10/14 03:14:49;;;;;;;34.45;18.63;;;12.10;97.90;;;;;;5055114;28;20051;-80
2021/10/14 03:17:15;;;;;;;33.40;20.65;;;12.10;97.90;;;;;;5054507;28;20075;-79
2021/10/14 03:19:40;;;;;;;35.47;21.02;;;12.10;97.90;;;;;;5054251;28;20025;-79
2021/10/14 03:22:06;;;;;;;39.90;22.63;;;12.10;97.90;;;;;;5054449;28;20072;-79
2021/10/14 03:24:32;;;;;;;33.40;19.92;;;12.10;97.80;;;;;;5056125;28;20037;-79
2021/10/14 03:26:57;;;;;;;32.38;20.60;;;12.20;97.80;;;;;;5053993;28;20029;-79
2021/10/14 03:29:23;;;;;;;37.35;19.73;;;12.20;97.80;;;;;;5054194;28;20434;-79
2021/10/14 03:31:48;;;;;;;35.00;20.35;;;12.20;97.70;;;;;;5021275;28;20484;-79
2021/10/14 03:34:14;;;;;;;34.95;21.02;;;12.20;97.60;;;;;;5055108;28;20500;-79
2021/10/14 03:36:40;;;;;;;39.50;21.25;;;12.20;97.70;;;;;;5054188;28;20396;-79
2021/10/14 03:39:06;;;;;;;33.47;21.67;;;12.20;97.70;;;;;;5037424;28;20032;-79
2021/10/14 03:41:31;;;;;;;34.05;21.48;;;12.20;97.70;;;;;;5054219;28;20037;-78
2021/10/14 03:43:57;;;;;;;35.28;21.17;;;12.20;97.60;;;;;;5054067;28;20033;-79
2021/10/14 03:46:23;;;;;;;31.90;20.85;;;12.20;97.60;;;;;;5037675;28;20649;-78
2021/10/14 03:48:48;;;;;;;34.45;22.00;;;12.20;97.70;;;;;;5054259;28;20457;-77
2021/10/14 03:51:14;;;;;;;35.40;20.38;;;12.20;97.60;;;;;;5054036;28;20075;-77
2021/10/14 03:53:39;;;;;;;39.33;23.75;;;12.20;97.60;;;;;;5054877;28;20107;-78
2021/10/14 03:56:05;;;;;;;35.75;22.75;;;12.20;97.60;;;;;;5021067;28;20036;-78
2021/10/14 03:58:31;;;;;;;34.35;22.40;;;12.20;97.60;;;;;;5055330;28;20087;-78
2021/10/14 04:00:56;;;;;;;34.35;21.52;;;12.20;97.60;;;;;;5053605;28;20106;-78
2021/10/14 04:03:22;;;;;;;38.53;22.55;;;12.20;97.50;;;;;;5037012;28;20095;-78
2021/10/14 04:05:47;;;;;;;33.83;22.50;;;12.20;97.50;;;;;;5053810;28;20029;-78
2021/10/14 04:08:13;;;;;;;32.67;22.27;;;12.20;97.60;;;;;;5054288;28;20453;-77
2021/10/14 04:10:39;;;;;;;33.72;22.67;;;12.20;97.50;;;;;;5054891;28;20071;-78
2021/10/14 04:13:05;;;;;;;37.00;23.50;;;12.20;97.50;;;;;;5036663;28;20583;-78
2021/10/14 04:15:31;;;;;;;36.15;22.00;;;12.20;97.50;;;;;;5054858;28;20583;-77
2021/10/14 04:17:57;;;;;;;34.35;21.40;;;12.20;97.50;;;;;;5053638;28;20124;-77
2021/10/14 04:20:22;;;;;;;39.38;24.25;;;12.30;97.40;;;;;;5037096;28;20057;-78
2021/10/14 04:22:48;;;;;;;35.92;23.85;;;12.20;97.40;;;;;;5053346;28;20040;-78
2021/10/14 04:25:14;;;;;;;35.25;23.20;;;12.30;97.40;;;;;;5053411;28;20032;-78
2021/10/14 04:27:40;;;;;;;35.95;23.55;;;12.30;97.40;;;;;;5054747;28;20025;-78
2021/10/14 04:30:06;;;;;;;38.65;24.92;;;12.20;97.50;;;;;;5053421;28;20106;-78
2021/10/14 04:32:32;;;;;;;35.58;23.30;;;12.20;97.50;;;;;;5052848;28;20125;-78
2021/10/14 04:34:58;;;;;;;32.97;23.15;;;12.30;97.50;;;;;;5053005;28;20049;-78
2021/10/14 04:37:24;;;;;;;38.72;23.33;;;12.30;97.40;;;;;;5054625;28;20032;-78
2021/10/14 04:39:50;;;;;;;36.13;22.98;;;12.30;97.40;;;;;;5053515;28;20083;-77
2021/10/14 04:42:16;;;;;;;31.98;21.80;;;12.20;97.30;;;;;;5054304;28;20036;-79
2021/10/14 04:44:42;;;;;;;37.45;23.85;;;12.20;97.30;;;;;;5053669;28;20524;-77
2021/10/14 04:47:08;;;;;;;31.83;21.08;;;12.30;97.40;;;;;;5053836;28;20033;-77
2021/10/14 04:49:34;;;;;;;36.42;23.90;;;12.30;97.40;;;;;;5034648;28;20025;-77
2021/10/14 04:52:00;;;;;;;37.15;24.40;;;12.30;97.50;;;;;;5047163;28;20189;-77
2021/10/14 04:54:26;;;;;;;32.88;21.98;;;12.30;97.40;;;;;;5043465;28;20408;-75
2021/10/14 04:56:52;;;;;;;32.95;22.83;;;12.30;97.40;;;;;;5051887;28;20091;-75
2021/10/14 04:59:17;;;;;;;38.17;22.38;;;12.30;97.40;;;;;;5052966;28;20049;-76
2021/10/14 05:01:43;;;;;;;32.17;21.40;;;12.30;97.40;;;;;;5049054;28;20116;-75
2021/10/14 05:04:09;;;;;;;34.13;22.95;;;12.30;97.40;;;;;;5067775;28;20542;-75
2021/10/14 05:06:34;;;;;;;33.83;22.05;;;12.30;97.40;;;;;;5029124;28;20033;-75
2021/10/14 05:09:00;;;;;;;34.92;22.38;;;12.30;97.40;;;;;;5053112;28;20039;-75
2021/10/14 05:11:25;;;;;;;34.38;22.80;;;12.30;97.40;;;;;;5048126;28;20029;-75
2021/10/14 05:13:52;;;;;;;33.08;22.50;;;12.40;97.50;;;;;;5052560;28;20032;-75
2021/10/14 05:16:18;;;;;;;32.38;22.73;;;12.40;97.40;;;;;;5053828;28;20122;-75
2021/10/14 05:18:43;;;;;;;41.83;23.88;;;12.40;97.40;;;;;;5052619;28;20501;-75
2021/10/14 05:21:09;;;;;;;41.60;22.65;;;12.40;97.40;;;;;;5053952;28;20048;-75
2021/10/14 05:23:35;;;;;;;37.70;23.42;;;12.40;97.40;;;;;;5051145;28;20025;-75
2021/10/14 05:26:00;;;;;;;36.97;24.10;;;12.40;97.40;;;;;;5043929;28;20075;-75
2021/10/14 05:28:26;;;;;;;37.40;25.50;;;12.40;97.40;;;;;;5035289;28;20392;-75
2021/10/14 05:30:52;;;;;;;42.75;27.67;;;12.40;97.50;;;;;;5047367;28;20078;-75
2021/10/14 05:33:18;;;;;;;39.63;24.95;;;12.40;97.60;;;;;;5044668;28;20037;-75
2021/10/14 05:35:43;;;;;;;38.70;23.77;;;12.30;97.60;;;;;;5052011;28;20543;-75
2021/10/14 05:38:09;;;;;;;38.10;24.08;;;12.40;97.70;;;;;;5034937;28;20057;-75
2021/10/14 05:40:35;;;;;;;40.17;25.65;;;12.40;97.70;;;;;;5052307;28;20040;-75
2021/10/14 05:43:01;;;;;;;39.72;24.60;;;12.40;97.80;;;;;;5052002;28;20499;-75
2021/10/14 05:45:27;;;;;;;30.17;21.05;;;12.30;97.80;;;;;;5052062;28;20028;-75
2021/10/14 05:47:53;;;;;;;37.00;23.48;;;12.40;97.80;;;;;;5043137;28;20025;-75
2021/10/14 05:50:18;;;;;;;38.72;25.08;;;12.30;97.80;;;;;;5035088;28;20037;-75
2021/10/14 05:52:44;;;;;;;40.17;24.60;;;12.30;97.90;;;;;;5039244;28;20032;-75
2021/10/14 05:55:10;;;;;;;39.65;25.52;;;12.40;98.00;;;;;;5007934;28;20033;-75
2021/10/14 05:57:35;;;;;;;41.05;26.42;;;12.30;98.10;;;;;;5039615;28;20386;-76
2021/10/14 06:00:01;;;;;;;33.03;21.50;;;12.40;98.00;;;;;;5017832;28;20099;-75
2021/10/14 06:02:26;;;;;;;35.97;22.38;;;12.40;98.00;;;;;;5032480;28;20033;-75
2021/10/14 06:04:52;;;;;;;33.75;22.85;;;12.40;98.00;;;;;;5032365;28;20053;-75
2021/10/14 06:07:18;;;;;;;40.28;26.20;;;12.30;98.00;;;;;;5031763;28;20025;-75
2021/10/14 06:09:44;;;;;;;33.78;24.50;;;12.40;98.10;;;;;;5031837;28;20041;-75
2021/10/14 06:12:11;;;;;;;39.33;24.80;;;12.30;98.10;;;;;;5015243;28;20481;-78
2021/10/14 06:14:37;;;;;;;37.90;25.17;;;12.30;98.10;;;;;;5031324;28;20359;-79
2021/10/14 06:17:03;;;;;;;37.15;24.17;;;12.40;98.10;;;;;;5032458;28;20132;-77
2021/10/14 06:19:28;;;;;;;39.10;26.08;;;12.40;98.10;;;;;;5030794;28;20033;-78
2021/10/14 06:21:54;;;;;;;37.42;25.92;;;12.40;98.20;;;;;;5014735;28;20034;-78
2021/10/14 06:24:20;;;;;;;38.33;24.25;;;12.40;98.30;;;;;;5016893;28;20056;-78
2021/10/14 06:26:45;;;;;;;39.08;25.50;;;12.30;98.20;;;;;;5045273;28;20032;-77
2021/10/14 06:29:11;;;;;;;36.13;23.58;;;12.40;98.30;;;;;;5046327;28;20037;-78
2021/10/14 06:31:36;;;;;;;38.80;25.35;;;12.40;98.20;;;;;;5031684;28;20029;-78
2021/10/14 06:34:02;;;;;;;42.92;27.13;;;12.40;98.20;;;;;;5032088;28;20436;-78
2021/10/14 06:36:28;;;;;;;33.55;23.33;;;12.40;98.30;;;;;;5048238;28;20076;-78
2021/10/14 06:38:54;;;;;;;41.85;26.77;;;12.40;98.30;;;;;;5047124;28;20060;-78
2021/10/14 06:41:19;;;;;;;46.63;27.77;;;12.40;98.30;;;;;;5031110;28;20033;-78
2021/10/14 06:43:45;;;;;;;45.75;28.25;;;12.40;98.30;;;;;;5064902;28;20034;-78
2021/10/14 06:46:10;;;;;;;45.65;28.67;;;12.40;98.40;;;;;;5048122;28;20062;-78
2021/10/14 06:48:36;;;;;;;43.50;26.52;;;12.40;98.40;;;;;;5048006;28;20034;-78
2021/10/14 06:51:02;;;;;;;44.08;27.70;;;12.40;98.40;;;;;;5048023;28;20030;-78
2021/10/14 06:53:27;;;;;;;44.90;29.23;;;12.40;98.50;;;;;;5032547;28;20029;-77
2021/10/14 06:55:53;;;;;;;45.38;25.38;;;12.50;98.50;;;;;;5032210;28;20044;-78
2021/10/14 06:58:19;;;;;;;48.45;28.52;;;12.50;98.50;;;;;;5031283;28;20038;-78
2021/10/14 07:00:44;;;;;;;51.47;29.33;;;12.50;98.60;;;;;;5032137;28;20049;-78
2021/10/14 07:03:10;;;;;;;49.40;27.30;;;12.50;98.60;;;;;;5051105;28;20037;-77
2021/10/14 07:05:36;;;;;;;43.13;27.25;;;12.40;98.60;;;;;;5051847;28;20473;-78
2021/10/14 07:08:01;;;;;;;46.35;28.45;;;12.50;98.60;;;;;;5051042;28;20040;-77
2021/10/14 07:10:27;;;;;;;48.88;30.38;;;12.50;98.60;;;;;;5051494;28;20034;-78
2021/10/14 07:12:53;;;;;;;48.45;31.15;;;12.50;98.70;;;;;;5068368;28;20381;-77
2021/10/14 07:15:19;;;;;;;44.17;27.75;;;12.60;98.80;;;;;;5036236;28;20100;-77
2021/10/14 07:17:45;;;;;;;47.85;29.65;;;12.60;98.70;;;;;;5034842;28;20025;-78
2021/10/14 07:20:11;;;;;;;43.75;28.20;;;12.60;98.70;;;;;;5051482;28;20022;-78
2021/10/14 07:22:37;;;;;;;47.45;28.35;;;12.60;98.70;;;;;;5051085;28;20458;-79
2021/10/14 07:25:04;;;;;;;45.70;28.95;;;12.60;98.70;;;;;;5035717;28;20083;-78
2021/10/14 07:27:29;;;;;;;52.17;29.60;;;12.70;98.70;;;;;;5035936;28;20034;-78
2021/10/14 07:29:55;;;;;;;51.40;30.58;;;12.70;98.70;;;;;;5034175;28;20397;-78
2021/10/14 07:32:21;;;;;;;45.88;30.17;;;12.70;98.70;;;;;;5034271;28;20064;-78
2021/10/14 07:34:47;;;;;;;48.53;30.42;;;12.60;98.70;;;;;;5034271;28;20046;-78
2021/10/14 07:37:18;;;;;;;48.03;29.13;;;12.70;98.70;;;;;;5035791;28;20645;-78
2021/10/14 07:39:44;;;;;;;49.55;31.20;;;12.70;98.70;;;;;;5033947;28;20044;-78
2021/10/14 07:42:10;;;;;;;44.70;29.75;;;12.80;98.90;;;;;;5035456;28;20104;-78
2021/10/14 07:44:35;;;;;;;47.90;30.85;;;12.70;98.80;;;;;;5034209;28;20037;-78
2021/10/14 07:47:01;;;;;;;48.67;30.77;;;12.80;98.80;;;;;;5035206;28;20029;-78
2021/10/14 07:49:27;;;;;;;54.03;32.72;;;12.80;98.80;;;;;;5050792;28;20033;-78
2021/10/14 07:51:53;;;;;;;49.13;29.52;;;12.80;98.80;;;;;;5050984;28;20461;-78
2021/10/14 07:54:18;;;;;;;44.83;28.95;;;12.80;98.80;;;;;;5035271;28;20068;-78
2021/10/14 07:56:44;;;;;;;47.60;29.70;;;12.80;98.80;;;;;;5035102;28;20037;-78
2021/10/14 07:59:09;;;;;;;48.83;30.60;;;12.80;98.80;;;;;;5033988;28;20059;-78
2021/10/14 08:01:35;;;;;;;49.60;29.23;;;12.80;98.80;;;;;;5034951;28;20031;-78
2021/10/14 08:04:02;;;;;;;46.80;29.65;;;12.80;98.90;;;;;;5034642;28;20482;-78
2021/10/14 08:06:28;;;;;;;41.63;28.02;;;12.80;98.90;;;;;;5035194;28;20022;-78
2021/10/14 08:08:54;;;;;;;46.38;31.08;;;12.90;98.90;;;;;;5050363;28;20031;-78
2021/10/14 08:11:20;;;;;;;45.08;29.40;;;12.90;99.00;;;;;;5050734;28;20116;-78
2021/10/14 08:13:45;;;;;;;39.10;26.27;;;12.90;99.00;;;;;;5033625;28;20068;-78
2021/10/14 08:16:11;;;;;;;48.47;31.25;;;12.90;98.90;;;;;;5035175;28;20095;-78
2021/10/14 08:18:37;;;;;;;48.78;30.05;;;12.90;99.00;;;;;;5033647;28;20036;-78
2021/10/14 08:21:02;;;;;;;38.45;27.25;;;12.90;99.00;;;;;;5034863;28;20033;-77
2021/10/14 08:23:28;;;;;;;47.63;30.33;;;12.90;98.90;;;;;;5034461;28;20071;-78
2021/10/14 08:25:55;;;;;;;45.15;30.30;;;13.00;99.00;;;;;;5049892;28;20120;-78
2021/10/14 08:28:23;;;;;;;43.67;29.95;;;13.00;99.00;;;;;;5034507;28;20037;-78
2021/10/14 08:30:50;;;;;;;46.25;29.88;;;13.00;98.90;;;;;;5049906;28;20026;-78
2021/10/14 08:33:16;;;;;;;40.47;27.63;;;13.10;98.90;;;;;;5049857;28;20021;-78
2021/10/14 08:35:42;;;;;;;41.85;28.15;;;13.10;98.90;;;;;;5034462;28;20045;-78
2021/10/14 08:38:11;;;;;;;42.20;27.95;;;13.10;98.90;;;;;;5033028;28;20022;-78
2021/10/14 08:40:39;;;;;;;43.53;28.30;;;13.10;98.90;;;;;;5034539;28;20129;-78
2021/10/14 08:43:07;;;;;;;39.13;27.17;;;13.20;98.90;;;;;;5033283;28;20449;-78
2021/10/14 08:45:35;;;;;;;42.08;26.98;;;13.20;99.00;;;;;;5034249;28;20049;-78
2021/10/14 08:48:05;;;;;;;44.72;28.73;;;13.20;98.90;;;;;;5034019;28;20055;-78
2021/10/14 08:50:38;;;;;;;49.67;29.23;;;13.20;99.00;;;;;;5033950;28;20056;-77
2021/10/14 08:53:05;;;;;;;44.08;28.45;;;13.20;98.90;;;;;;5034203;28;20029;-78
2021/10/14 08:55:34;;;;;;;40.45;28.40;;;13.20;98.90;;;;;;5049390;28;20029;-78
2021/10/14 08:58:00;;;;;;;46.83;27.55;;;13.30;98.90;;;;;;5033851;28;20370;-78
2021/10/14 09:00:26;;;;;;;41.42;26.27;;;13.30;98.90;;;;;;5049449;28;20076;-78
2021/10/14 09:02:52;;;;;;;41.95;27.33;;;13.30;98.90;;;;;;5049156;28;20064;-78
2021/10/14 09:05:18;;;;;;;40.10;27.95;;;13.30;98.90;;;;;;5033833;28;20068;-78
2021/10/14 09:07:50;;;;;;;35.63;23.77;;;13.40;98.90;;;;;;5032669;28;20033;-78
2021/10/14 09:10:16;;;;;;;37.92;24.00;;;13.50;98.90;;;;;;5033818;28;20057;-78
2021/10/14 09:12:45;;;;;;;36.33;24.42;;;13.50;98.90;;;;;;5033830;28;20488;-78
2021/10/14 09:15:14;;;;;;;33.05;23.17;;;13.60;98.80;;;;;;5033717;28;20091;-78
2021/10/14 09:17:51;;;;;;;32.17;21.63;;;13.70;98.80;;;;;;5033946;28;20025;-78
2021/10/14 09:20:28;;;;;;;33.03;22.58;;;13.80;98.70;;;;;;5033580;28;20032;-78
2021/10/14 09:22:58;;;;;;;32.13;22.67;;;13.80;98.50;;;;;;5032665;28;20021;-78
2021/10/14 09:25:35;;;;;;;39.08;23.58;;;13.80;98.50;;;;;;5033705;28;20116;-78
2021/10/14 09:28:24;;;;;;;37.30;23.40;;;13.80;98.30;;;;;;5033550;28;20032;-78
2021/10/14 09:30:51;;;;;;;30.50;23.08;;;13.90;98.30;;;;;;5033705;28;20052;-78
2021/10/14 09:33:40;;;;;;;33.05;22.55;;;13.90;98.20;;;;;;5031757;28;20478;-78
2021/10/14 09:36:12;;;;;;;35.90;23.23;;;13.90;98.20;;;;;;5048866;28;20045;-78
2021/10/14 09:38:38;;;;;;;35.58;23.92;;;13.90;98.10;;;;;;5033317;28;20029;-78
2021/10/14 09:41:07;;;;;;;35.65;24.25;;;13.90;98.10;;;;;;5032504;28;20127;-78
2021/10/14 09:43:33;;;;;;;35.78;24.23;;;13.90;98.30;;;;;;5048603;28;20059;-78
2021/10/14 09:45:59;;;;;;;40.20;25.50;;;13.90;98.00;;;;;;5033430;28;20116;-78
2021/10/14 09:48:24;;;;;;;40.00;25.73;;;13.90;98.00;;;;;;5033098;28;20104;-78
2021/10/14 09:50:51;;;;;;;35.63;24.58;;;13.90;98.10;;;;;;5033083;28;20026;-78
2021/10/14 09:53:22;;;;;;;35.33;23.88;;;13.90;98.10;;;;;;5033281;28;20029;-78
2021/10/14 09:55:49;;;;;;;38.85;24.55;;;13.90;98.10;;;;;;5048331;28;20412;-78
2021/10/14 09:58:15;;;;;;;35.90;24.13;;;13.80;98.10;;;;;;5033096;28;20025;-78
2021/10/14 10:00:42;;;;;;;33.92;22.98;;;13.90;98.10;;;;;;5032795;28;20140;-78
2021/10/14 10:03:11;;;;;;;38.85;23.58;;;13.90;98.20;;;;;;5032946;28;20037;-78
2021/10/14 10:05:38;;;;;;;31.60;22.40;;;13.90;98.20;;;;;;5048340;28;20446;-78
2021/10/14 10:08:13;;;;;;;35.85;25.05;;;14.00;98.20;;;;;;5031338;28;20068;-78
2021/10/14 10:10:44;;;;;;;35.92;24.17;;;14.00;98.10;;;;;;5031833;28;20481;-78
2021/10/14 10:13:11;;;;;;;37.60;24.95;;;14.10;98.20;;;;;;5032939;28;20382;-78
2021/10/14 10:15:41;;;;;;;40.10;26.92;;;14.00;98.10;;;;;;5031641;28;20045;-78
2021/10/14 10:18:28;;;;;;;34.70;23.27;;;14.00;98.10;;;;;;5032546;28;20028;-78
2021/10/14 10:20:59;;;;;;;38.58;26.77;;;14.10;98.20;;;;;;5033093;28;20029;-78
2021/10/14 10:23:43;;;;;;;38.58;26.10;;;14.20;98.20;;;;;;5029984;28;20084;-78
2021/10/14 10:26:36;;;;;;;35.60;25.63;;;14.20;98.10;;;;;;5032877;28;20433;-78
2021/10/14 10:29:14;;;;;;;38.65;26.73;;;14.20;98.10;;;;;;5033034;28;20029;-78
2021/10/14 10:31:51;;;;;;;44.80;29.73;;;14.20;98.00;;;;;;5032909;28;20034;-78
2021/10/14 10:37:23;;;;;;;40.80;27.52;;;14.30;97.90;;;;;;5034896;28;20030;-78
2021/10/14 10:40:11;;;;;;;35.55;26.55;;;14.40;98.00;;;;;;5036813;28;20029;-78
2021/10/14 10:43:02;;;;;;;39.33;25.48;;;14.50;98.00;;;;;;5036740;28;20029;-78
2021/10/14 10:45:41;;;;;;;36.67;24.92;;;14.60;97.90;;;;;;5052159;28;20026;-78
2021/10/14 10:48:07;;;;;;;34.30;24.17;;;14.70;97.80;;;;;;5036345;28;20033;-78
2021/10/14 10:50:32;;;;;;;34.50;22.95;;;14.90;97.80;;;;;;5051942;28;20076;-78
2021/10/14 10:53:13;;;;;;;29.42;22.55;;;15.00;97.40;;;;;;5036237;28;20033;-78
2021/10/14 10:55:48;;;;;;;32.50;22.88;;;15.10;97.20;;;;;;5035968;28;20108;-78
2021/10/14 10:58:35;;;;;;;30.40;21.63;;;15.20;97.20;;;;;;5036671;28;20022;-79
2021/10/14 11:01:02;;;;;;;26.95;20.48;;;15.40;96.90;;;;;;5036171;28;20476;-78
2021/10/14 11:03:29;;;;;;;30.30;21.95;;;15.50;96.70;;;;;;5036122;28;20068;-79
2021/10/14 11:06:08;;;;;;;27.77;20.05;;;15.60;96.50;;;;;;5051641;28;20037;-78
2021/10/14 11:08:35;;;;;;;30.00;21.92;;;15.70;96.10;;;;;;5034483;28;20032;-79
2021/10/14 11:11:18;;;;;;;29.52;22.02;;;15.70;95.50;;;;;;5051448;28;20030;-78
2021/10/14 11:13:54;;;;;;;29.63;22.37;;;15.70;95.10;;;;;;5035929;28;20071;-78
2021/10/14 11:16:27;;;;;;;33.03;23.17;;;15.60;95.00;;;;;;5034890;28;20366;-78
2021/10/14 11:18:56;;;;;;;28.67;21.15;;;15.60;95.00;;;;;;5035993;28;20087;-78
2021/10/14 11:21:24;;;;;;;30.80;22.23;;;15.50;94.90;;;;;;5051638;28;20544;-78
2021/10/14 11:23:55;;;;;;;28.98;20.92;;;15.50;95.10;;;;;;5034511;28;20017;-78
2021/10/14 11:26:31;;;;;;;27.83;20.15;;;15.50;95.10;;;;;;5035740;28;20033;-78
2021/10/14 11:29:12;;;;;;;26.20;20.25;;;15.60;95.00;;;;;;5035574;28;20025;-78
2021/10/14 11:31:41;;;;;;;27.13;20.42;;;15.50;94.80;;;;;;5051103;28;20029;-78
2021/10/14 11:34:10;;;;;;;25.30;18.88;;;15.50;94.80;;;;;;5035295;28;20044;-79
2021/10/14 11:36:37;;;;;;;24.58;19.50;;;15.50;94.80;;;;;;5035738;28;20112;-78
2021/10/14 11:39:06;;;;;;;25.75;17.83;;;15.60;94.80;;;;;;5035445;28;20029;-78
2021/10/14 11:41:32;;;;;;;22.17;16.83;;;15.60;94.90;;;;;;5050694;28;20029;-79
2021/10/14 11:44:01;;;;;;;21.60;14.75;;;15.70;94.90;;;;;;5034362;28;20393;-78
2021/10/14 11:46:29;;;;;;;23.73;14.88;;;15.80;94.50;;;;;;5051069;28;20390;-79
2021/10/14 11:48:57;;;;;;;21.27;15.65;;;15.80;94.20;;;;;;5034151;28;20026;-78
2021/10/14 11:51:23;;;;;;;21.85;17.23;;;15.80;94.10;;;;;;5051145;28;20025;-79
2021/10/14 11:54:19;;;;;;;21.23;16.33;;;15.80;94.20;;;;;;5050498;28;20600;-78
2021/10/14 11:56:46;;;;;;;23.98;16.40;;;15.90;94.20;;;;;;5049187;28;20100;-78
2021/10/14 11:59:13;;;;;;;21.65;15.63;;;15.90;94.00;;;;;;5035065;28;20048;-78
2021/10/14 12:01:59;;;;;;;20.70;15.48;;;15.90;93.90;;;;;;5035296;28;20030;-79
2021/10/14 12:04:33;;;;;;;20.70;15.50;;;16.00;93.70;;;;;;5033245;28;20029;-78
2021/10/14 12:07:00;;;;;;;23.15;16.27;;;16.00;93.70;;;;;;5034176;28;20033;-79
2021/10/14 12:09:27;;;;;;;23.85;16.65;;;15.90;93.70;;;;;;5067622;28;20385;-79
2021/10/14 12:12:00;;;;;;;19.13;15.65;;;15.90;93.40;;;;;;5034980;28;20146;-78
2021/10/14 12:14:27;;;;;;;20.85;15.50;;;15.80;93.40;;;;;;5050339;28;20037;-78
2021/10/14 12:17:11;;;;;;;23.17;16.95;;;15.80;93.50;;;;;;5033347;28;20049;-78
2021/10/14 12:19:45;;;;;;;21.42;14.10;;;15.80;93.50;;;;;;5033417;28;20025;-78
2021/10/14 12:22:20;;;;;;;19.80;13.95;;;15.80;93.60;;;;;;5035180;28;20459;-79
2021/10/14 12:24:56;;;;;;;24.27;14.93;;;15.80;93.70;;;;;;5034954;28;20033;-78
2021/10/14 12:27:23;;;;;;;19.55;15.18;;;15.90;93.70;;;;;;5033317;28;20057;-78
2021/10/14 12:29:50;;;;;;;21.27;14.55;;;15.90;93.60;;;;;;5016746;28;20028;-78
2021/10/14 12:32:21;;;;;;;21.75;16.38;;;15.90;93.60;;;;;;5034494;28;20036;-78